Time;durP1;ratioP1;P1;durP2;ratioP2;P2;SDS_P1;SDS_P2;PMS_P1;PMS_P2;Temp;Humidity;BMP_temperature;BMP_pressure;BME280_temperature;BME280_humidity;BME280_pressure;Samples;Min_cycle;Max_cycle;Signal;HPM_P1;HPM_P2
2023/12/19 00:02:05;;;;;;;79.05;34.92;;;16.50;99.90;;;;;;4948696;29;20043;-72
2023/12/19 00:04:33;;;;;;;81.47;36.25;;;17.70;99.90;;;;;;4948440;29;20038;-73
2023/12/19 00:06:58;;;;;;;86.38;36.10;;;16.50;99.90;;;;;;4948316;29;20051;-73
2023/12/19 00:09:25;;;;;;;74.03;35.30;;;17.60;99.90;;;;;;4948384;29;20085;-74
2023/12/19 00:11:50;;;;;;;89.97;36.20;;;16.90;99.90;;;;;;4948094;28;20162;-72
2023/12/19 00:14:16;;;;;;;72.43;36.97;;;16.50;99.90;;;;;;4948154;29;20130;-73
2023/12/19 00:16:42;;;;;;;76.20;34.38;;;17.80;99.90;;;;;;4948329;29;20039;-72
2023/12/19 00:19:09;;;;;;;63.83;34.60;;;17.50;99.90;;;;;;4932207;29;20138;-73
2023/12/19 00:21:35;;;;;;;63.88;33.58;;;16.30;99.90;;;;;;4948824;29;20054;-73
2023/12/19 00:24:00;;;;;;;61.22;33.50;;;17.20;99.90;;;;;;4948009;29;20086;-73
2023/12/19 00:26:26;;;;;;;80.03;37.55;;;16.10;99.90;;;;;;4947663;29;20402;-73
2023/12/19 00:28:52;;;;;;;70.63;37.08;;;16.20;99.90;;;;;;4947843;29;20055;-73
2023/12/19 00:31:22;;;;;;;71.63;36.60;;;16.90;99.90;;;;;;4932500;29;20130;-73
2023/12/19 00:33:47;;;;;;;66.55;35.47;;;17.70;99.90;;;;;;4940883;29;20086;-73
2023/12/19 00:36:23;;;;;;;68.35;35.45;;;16.80;99.90;;;;;;4949852;29;20071;-73
2023/12/19 00:38:49;;;;;;;63.77;35.23;;;17.40;99.90;;;;;;4928669;29;20083;-73
2023/12/19 00:41:18;;;;;;;74.68;35.47;;;17.70;99.90;;;;;;4954321;28;20780;-72
2023/12/19 00:43:45;;;;;;;58.00;34.42;;;17.20;99.90;;;;;;4948224;29;20047;-72
2023/12/19 00:46:11;;;;;;;65.15;36.92;;;17.10;99.90;;;;;;4949313;28;20043;-73
2023/12/19 00:48:37;;;;;;;51.05;34.88;;;16.90;99.90;;;;;;4947982;29;20074;-72
2023/12/19 00:51:07;;;;;;;47.92;34.08;;;17.90;99.90;;;;;;4949843;28;20105;-71
2023/12/19 00:53:33;;;;;;;50.80;34.25;;;16.50;99.90;;;;;;4948321;29;20054;-72
2023/12/19 00:55:58;;;;;;;49.78;34.85;;;17.90;99.90;;;;;;4932032;29;20043;-72
2023/12/19 00:58:24;;;;;;;47.45;32.78;;;17.90;99.90;;;;;;4947484;29;20508;-71
2023/12/19 01:00:49;;;;;;;46.03;31.40;;;17.10;99.90;;;;;;4947614;29;20046;-72
2023/12/19 01:03:15;;;;;;;42.08;31.85;;;17.30;99.90;;;;;;4947937;29;20079;-72
2023/12/19 01:05:40;;;;;;;40.08;33.67;;;16.40;99.90;;;;;;4948043;29;20105;-72
2023/12/19 01:08:06;;;;;;;41.20;32.28;;;16.40;99.90;;;;;;4947522;29;20130;-72
2023/12/19 01:10:32;;;;;;;40.83;33.25;;;17.60;99.90;;;;;;4931000;29;20074;-73
2023/12/19 01:12:57;;;;;;;35.30;31.38;;;17.80;99.90;;;;;;4947052;29;20053;-73
2023/12/19 01:15:24;;;;;;;38.67;31.17;;;17.60;99.90;;;;;;4946617;29;20066;-72
2023/12/19 01:17:49;;;;;;;34.05;30.23;;;17.90;99.90;;;;;;4946649;29;20042;-72
2023/12/19 01:20:15;;;;;;;34.75;31.15;;;17.40;99.90;;;;;;4946884;29;20039;-71
2023/12/19 01:22:41;;;;;;;35.55;29.23;;;17.50;99.90;;;;;;4949324;28;20074;-72
2023/12/19 01:25:06;;;;;;;34.28;30.10;;;17.00;99.90;;;;;;4947282;29;20580;-71
2023/12/19 01:27:32;;;;;;;33.65;30.15;;;17.40;99.90;;;;;;4947017;29;20517;-72
2023/12/19 01:29:58;;;;;;;35.42;31.85;;;17.60;99.90;;;;;;4947240;29;20055;-71
2023/12/19 01:32:23;;;;;;;34.70;31.13;;;18.00;99.90;;;;;;4946611;29;20043;-72
2023/12/19 01:34:49;;;;;;;34.83;31.20;;;16.80;99.90;;;;;;4946171;29;20079;-73
2023/12/19 01:37:14;;;;;;;32.55;29.23;;;17.50;99.90;;;;;;4947163;29;20069;-72
2023/12/19 01:39:40;;;;;;;33.17;29.67;;;17.10;99.90;;;;;;4947388;29;20047;-73
2023/12/19 01:42:06;;;;;;;34.72;29.63;;;17.20;99.90;;;;;;4947529;29;20183;-71
2023/12/19 01:44:31;;;;;;;32.88;29.52;;;17.40;99.90;;;;;;4930842;29;20047;-72
2023/12/19 01:46:57;;;;;;;32.60;29.55;;;17.30;99.90;;;;;;4946300;29;20114;-71
2023/12/19 01:49:22;;;;;;;32.83;29.83;;;17.00;99.90;;;;;;4945816;28;20059;-72
2023/12/19 01:51:49;;;;;;;33.15;30.00;;;17.60;99.90;;;;;;4946724;29;20062;-72
2023/12/19 01:54:15;;;;;;;35.65;32.28;;;17.50;99.90;;;;;;4946843;29;20043;-72
2023/12/19 01:56:41;;;;;;;30.23;27.52;;;17.70;99.90;;;;;;4946746;29;20036;-73
2023/12/19 01:59:08;;;;;;;31.63;28.45;;;17.80;99.90;;;;;;4946406;28;20101;-72
2023/12/19 02:01:34;;;;;;;31.42;28.48;;;16.80;99.90;;;;;;4976541;23;20074;-89
2023/12/19 02:04:01;;;;;;;37.70;31.40;;;17.80;99.90;;;;;;4982617;23;20066;-67
2023/12/19 02:06:27;;;;;;;35.17;31.75;;;17.60;99.90;;;;;;4971690;23;20117;-72
2023/12/19 02:08:52;;;;;;;32.92;30.00;;;17.50;99.90;;;;;;4948506;28;20050;-73
2023/12/19 02:11:18;;;;;;;32.95;30.05;;;16.60;99.90;;;;;;4947091;28;20050;-71
2023/12/19 02:13:44;;;;;;;33.13;30.08;;;17.50;99.90;;;;;;4962519;28;20054;-72
2023/12/19 02:16:10;;;;;;;31.42;28.48;;;17.90;99.90;;;;;;4998578;28;20050;-72
2023/12/19 02:18:36;;;;;;;30.63;27.92;;;17.00;99.90;;;;;;5347778;23;20532;-72
2023/12/19 02:21:04;;;;;;;32.13;29.33;;;16.50;99.90;;;;;;4958330;28;20505;-71
2023/12/19 02:23:29;;;;;;;30.52;27.23;;;17.30;99.90;;;;;;4959172;28;20420;-71
2023/12/19 02:25:55;;;;;;;31.63;28.77;;;18.10;99.90;;;;;;4945717;29;20047;-71
2023/12/19 02:28:21;;;;;;;31.85;29.15;;;17.60;99.90;;;;;;4962143;28;20053;-72
2023/12/19 02:30:46;;;;;;;31.20;28.58;;;16.60;99.90;;;;;;4945370;29;20047;-71
2023/12/19 02:33:12;;;;;;;32.38;29.58;;;16.80;99.90;;;;;;4945709;29;20130;-72
2023/12/19 02:35:38;;;;;;;32.45;29.52;;;17.30;99.90;;;;;;4946075;29;20047;-72
2023/12/19 02:38:03;;;;;;;32.10;29.20;;;18.00;99.90;;;;;;4946139;29;20043;-71
2023/12/19 02:40:30;;;;;;;31.38;28.58;;;17.90;99.90;;;;;;4945187;29;20050;-70
2023/12/19 02:42:55;;;;;;;31.05;28.17;;;16.50;99.90;;;;;;4945864;29;20058;-72
2023/12/19 02:45:21;;;;;;;32.00;29.00;;;17.60;99.90;;;;;;4946024;29;20051;-72
2023/12/19 02:47:46;;;;;;;33.47;30.63;;;17.20;99.90;;;;;;4945778;29;20058;-73
2023/12/19 02:50:12;;;;;;;33.75;30.70;;;17.80;99.90;;;;;;4945746;29;20039;-73
2023/12/19 02:52:38;;;;;;;33.58;30.45;;;16.50;99.90;;;;;;4942436;28;20516;-73
2023/12/19 02:55:04;;;;;;;33.15;30.15;;;17.60;99.90;;;;;;4945697;29;20047;-73
2023/12/19 02:57:30;;;;;;;32.40;29.58;;;16.80;99.90;;;;;;4961698;28;20035;-72
2023/12/19 02:59:55;;;;;;;31.67;28.88;;;17.60;99.90;;;;;;4953780;28;20035;-74
2023/12/19 03:02:21;;;;;;;32.53;29.42;;;17.50;99.90;;;;;;4945288;29;20047;-72
2023/12/19 03:04:46;;;;;;;32.13;29.33;;;17.70;99.90;;;;;;4945340;29;20621;-74
2023/12/19 03:07:12;;;;;;;34.50;31.45;;;17.20;99.90;;;;;;4946440;29;20497;-72
2023/12/19 03:09:37;;;;;;;32.15;29.45;;;17.70;99.90;;;;;;4945944;28;20043;-74
2023/12/19 03:12:05;;;;;;;32.55;29.88;;;16.90;99.90;;;;;;4949627;29;20038;-73
2023/12/19 03:14:35;;;;;;;32.58;29.88;;;16.50;99.90;;;;;;4965712;28;20039;-73
2023/12/19 03:17:01;;;;;;;30.92;28.25;;;17.50;99.90;;;;;;4949612;29;20039;-73
2023/12/19 03:19:27;;;;;;;31.20;28.67;;;16.40;99.90;;;;;;4945557;28;20063;-72
2023/12/19 03:21:54;;;;;;;30.95;28.25;;;17.60;99.90;;;;;;4933451;29;20051;-73
2023/12/19 03:24:20;;;;;;;33.40;29.75;;;17.70;99.90;;;;;;4943377;29;20505;-69
2023/12/19 03:26:45;;;;;;;32.08;29.38;;;17.60;99.90;;;;;;4949802;29;20055;-74
2023/12/19 03:29:11;;;;;;;31.98;29.35;;;17.40;99.90;;;;;;4946260;29;20058;-73
2023/12/19 03:31:36;;;;;;;32.40;29.60;;;17.60;99.90;;;;;;4948923;29;20137;-74
2023/12/19 03:34:02;;;;;;;33.78;30.73;;;16.70;99.90;;;;;;4949943;29;20082;-73
2023/12/19 03:36:29;;;;;;;32.85;30.00;;;17.90;99.90;;;;;;4949325;29;20035;-73
2023/12/19 03:38:54;;;;;;;33.58;30.55;;;17.70;99.90;;;;;;4949566;29;20134;-74
2023/12/19 03:41:20;;;;;;;31.45;28.52;;;17.50;99.90;;;;;;4949279;29;20077;-72
2023/12/19 03:43:45;;;;;;;31.23;28.42;;;16.70;99.90;;;;;;4933321;29;20043;-75
2023/12/19 03:46:11;;;;;;;32.47;29.55;;;16.40;99.90;;;;;;4949407;29;20051;-76
2023/12/19 03:48:37;;;;;;;33.95;30.95;;;16.30;99.90;;;;;;4949321;29;20580;-72
2023/12/19 03:51:03;;;;;;;33.97;30.85;;;16.30;99.90;;;;;;4948471;29;20051;-76
2023/12/19 03:53:29;;;;;;;33.67;30.77;;;16.20;99.90;;;;;;4949009;29;20102;-75
2023/12/19 03:55:55;;;;;;;30.88;28.13;;;16.90;99.90;;;;;;4949033;29;20035;-76
2023/12/19 03:58:20;;;;;;;32.65;29.63;;;16.80;99.90;;;;;;4949037;29;20452;-78
2023/12/19 04:00:48;;;;;;;31.33;28.48;;;16.70;99.90;;;;;;4948452;29;20523;-74
2023/12/19 04:03:13;;;;;;;32.70;29.83;;;16.40;99.90;;;;;;4948668;29;20059;-77
2023/12/19 04:05:39;;;;;;;32.78;29.80;;;17.30;99.90;;;;;;4948616;29;20409;-76
2023/12/19 04:08:05;;;;;;;35.45;32.20;;;15.80;99.90;;;;;;4948318;29;20047;-78
2023/12/19 04:10:30;;;;;;;37.47;33.88;;;16.20;99.90;;;;;;4948736;29;20878;-79
2023/12/19 04:12:56;;;;;;;36.85;33.58;;;17.20;99.90;;;;;;4948558;29;20523;-75
2023/12/19 04:15:22;;;;;;;36.67;33.08;;;17.50;99.90;;;;;;4948944;29;20416;-76
2023/12/19 04:17:47;;;;;;;36.17;32.97;;;16.60;99.90;;;;;;4948954;28;20073;-79
2023/12/19 04:20:13;;;;;;;35.88;32.55;;;17.90;99.90;;;;;;4948668;29;20051;-76
2023/12/19 04:22:39;;;;;;;36.92;33.35;;;17.90;99.90;;;;;;4947779;28;20047;-78
2023/12/19 04:25:05;;;;;;;32.67;29.58;;;17.50;99.90;;;;;;4948181;29;20121;-78
2023/12/19 04:27:31;;;;;;;36.08;32.42;;;17.20;99.90;;;;;;4932527;29;20086;-76
2023/12/19 04:29:56;;;;;;;35.45;31.75;;;16.10;99.90;;;;;;4948281;29;20102;-75
2023/12/19 04:32:22;;;;;;;34.17;31.05;;;17.10;99.90;;;;;;4948219;29;20054;-76
2023/12/19 04:34:48;;;;;;;36.28;32.75;;;16.40;99.90;;;;;;4932371;29;20417;-78
2023/12/19 04:37:13;;;;;;;37.45;34.05;;;16.60;99.90;;;;;;4948792;29;20179;-77
2023/12/19 04:39:39;;;;;;;38.95;35.30;;;16.20;99.90;;;;;;4932225;29;20476;-78
2023/12/19 04:42:07;;;;;;;36.92;33.55;;;17.40;99.90;;;;;;4947566;29;20731;-78
2023/12/19 04:44:35;;;;;;;37.42;33.92;;;16.30;99.90;;;;;;4947161;29;20043;-78
2023/12/19 04:47:02;;;;;;;33.85;30.60;;;16.40;99.90;;;;;;4942541;29;20055;-74
2023/12/19 04:49:28;;;;;;;32.50;29.50;;;16.70;99.90;;;;;;4948046;29;20054;-76
2023/12/19 04:51:54;;;;;;;34.95;31.48;;;17.60;99.90;;;;;;4948095;29;20504;-76
2023/12/19 04:54:19;;;;;;;34.00;30.45;;;16.00;99.90;;;;;;4947850;29;20043;-73
2023/12/19 04:56:45;;;;;;;33.55;30.33;;;17.60;99.90;;;;;;4948329;29;20556;-74
2023/12/19 04:59:10;;;;;;;34.30;30.88;;;17.60;99.90;;;;;;4947054;29;20430;-76
2023/12/19 05:01:40;;;;;;;34.33;30.85;;;16.80;99.90;;;;;;4947664;29;20287;-75
2023/12/19 05:04:06;;;;;;;37.28;33.90;;;16.60;99.90;;;;;;4939021;29;20093;-74
2023/12/19 05:06:31;;;;;;;38.38;34.85;;;17.70;99.90;;;;;;4952234;28;20094;-76
2023/12/19 05:08:57;;;;;;;36.45;33.13;;;17.20;99.90;;;;;;4935652;29;20042;-76
2023/12/19 05:11:23;;;;;;;35.90;32.38;;;16.80;99.90;;;;;;4935312;29;20049;-76
2023/12/19 05:13:49;;;;;;;36.75;33.25;;;16.60;99.90;;;;;;4946247;29;20405;-77
2023/12/19 05:16:17;;;;;;;35.22;31.83;;;16.30;99.90;;;;;;4946184;29;20043;-73
2023/12/19 05:18:43;;;;;;;34.88;31.52;;;16.50;99.90;;;;;;4945893;28;20560;-76
2023/12/19 05:21:10;;;;;;;35.25;31.48;;;16.40;99.90;;;;;;4946497;29;20047;-76
2023/12/19 05:23:36;;;;;;;36.35;32.95;;;16.10;99.90;;;;;;4945283;29;20071;-75
2023/12/19 05:26:06;;;;;;;32.58;29.50;;;17.70;99.90;;;;;;4947090;29;20039;-78
2023/12/19 05:28:34;;;;;;;35.08;31.42;;;16.90;99.90;;;;;;4947746;29;20130;-77
2023/12/19 05:30:59;;;;;;;36.97;30.75;;;17.70;99.90;;;;;;4947262;29;20104;-74
2023/12/19 05:33:26;;;;;;;37.30;33.60;;;17.20;99.90;;;;;;4946105;28;20066;-77
2023/12/19 05:35:52;;;;;;;36.08;32.63;;;17.50;99.90;;;;;;4931227;29;20043;-78
2023/12/19 05:38:18;;;;;;;37.08;33.55;;;17.50;99.90;;;;;;4947110;28;20485;-78
2023/12/19 05:40:44;;;;;;;38.20;34.53;;;16.20;99.90;;;;;;4930155;29;20043;-78
2023/12/19 05:43:10;;;;;;;37.83;34.28;;;16.70;99.90;;;;;;4946411;29;20043;-74
2023/12/19 05:45:35;;;;;;;38.67;35.08;;;17.70;99.90;;;;;;4947294;29;20125;-75
2023/12/19 05:48:01;;;;;;;36.67;32.22;;;16.50;99.90;;;;;;4947506;28;20047;-75
2023/12/19 05:50:27;;;;;;;36.78;31.65;;;16.10;99.90;;;;;;4946987;29;20559;-81
2023/12/19 05:52:52;;;;;;;43.70;33.03;;;17.30;99.90;;;;;;4930889;29;20099;-76
2023/12/19 05:55:19;;;;;;;34.80;30.65;;;16.90;99.90;;;;;;4947155;29;20599;-76
2023/12/19 05:57:45;;;;;;;34.85;31.27;;;15.90;99.90;;;;;;4947383;29;20054;-76
2023/12/19 06:00:11;;;;;;;35.47;31.92;;;16.90;99.90;;;;;;4947137;29;20513;-78
2023/12/19 06:02:37;;;;;;;37.92;33.83;;;17.50;99.90;;;;;;4947292;29;20058;-73
2023/12/19 06:05:07;;;;;;;36.53;32.80;;;17.20;99.90;;;;;;4929797;29;20034;-73
2023/12/19 06:07:37;;;;;;;35.85;32.05;;;17.80;99.90;;;;;;4945789;29;20114;-76
2023/12/19 06:10:08;;;;;;;36.80;33.00;;;16.50;99.90;;;;;;4946719;29;20580;-76
2023/12/19 06:12:34;;;;;;;36.03;32.30;;;17.60;99.90;;;;;;4947214;29;20548;-77
2023/12/19 06:15:00;;;;;;;33.95;30.67;;;16.40;99.90;;;;;;4945939;29;20047;-78
2023/12/19 06:17:26;;;;;;;37.75;31.75;;;16.10;99.90;;;;;;4945203;28;20109;-76
2023/12/19 06:19:51;;;;;;;79.43;36.53;;;17.10;99.90;;;;;;4945154;29;20055;-76
2023/12/19 06:22:17;;;;;;;32.58;29.20;;;17.20;99.90;;;;;;4946203;29;20055;-73
2023/12/19 06:24:42;;;;;;;34.53;31.00;;;17.50;99.90;;;;;;4945276;29;20039;-74
2023/12/19 06:27:08;;;;;;;33.65;30.33;;;16.50;99.90;;;;;;4946804;29;20082;-76
2023/12/19 06:29:34;;;;;;;34.00;30.60;;;16.10;99.90;;;;;;4946789;29;20039;-75
2023/12/19 06:32:00;;;;;;;35.75;30.92;;;17.60;99.90;;;;;;4946575;29;20047;-73
2023/12/19 06:34:28;;;;;;;36.53;32.67;;;17.50;99.90;;;;;;4946182;29;20047;-73
2023/12/19 06:36:53;;;;;;;35.42;31.52;;;16.30;99.90;;;;;;4947364;29;20350;-74
2023/12/19 06:39:19;;;;;;;34.67;31.05;;;17.40;99.90;;;;;;4946646;29;20062;-74
2023/12/19 06:41:45;;;;;;;33.17;29.60;;;17.80;99.90;;;;;;4946453;29;20134;-74
2023/12/19 06:44:12;;;;;;;36.47;32.03;;;16.70;99.90;;;;;;4929917;28;20460;-74
2023/12/19 06:46:37;;;;;;;38.95;30.08;;;17.00;99.90;;;;;;4935089;29;20055;-74
2023/12/19 06:49:04;;;;;;;42.58;31.20;;;17.30;99.90;;;;;;4930980;29;20113;-74
2023/12/19 06:51:31;;;;;;;43.65;29.95;;;17.10;99.90;;;;;;4930943;29;20054;-73
2023/12/19 06:53:57;;;;;;;39.67;31.50;;;17.70;99.90;;;;;;4929783;29;20405;-72
2023/12/19 06:56:26;;;;;;;65.20;32.08;;;16.60;99.90;;;;;;4928946;29;20035;-74
2023/12/19 06:58:52;;;;;;;33.22;28.45;;;16.50;99.90;;;;;;4927665;29;20093;-74
2023/12/19 07:01:18;;;;;;;33.22;27.77;;;17.40;99.90;;;;;;4948906;29;20396;-74
2023/12/19 07:03:44;;;;;;;32.33;28.50;;;17.90;99.90;;;;;;4949815;29;20043;-75
2023/12/19 07:06:16;;;;;;;37.35;29.40;;;17.50;99.90;;;;;;4949775;29;20101;-75
2023/12/19 07:08:42;;;;;;;36.22;30.45;;;17.50;99.90;;;;;;4949676;29;20075;-74
2023/12/19 07:11:08;;;;;;;33.03;29.40;;;18.10;99.90;;;;;;4950277;28;20147;-74
2023/12/19 07:13:34;;;;;;;34.78;28.23;;;16.30;99.90;;;;;;4947456;29;20090;-74
2023/12/19 07:16:01;;;;;;;30.23;27.17;;;18.60;99.90;;;;;;4947380;29;20459;-75
2023/12/19 07:18:28;;;;;;;29.45;26.35;;;17.80;99.90;;;;;;4931124;29;20130;-74
2023/12/19 07:20:53;;;;;;;30.27;26.50;;;17.10;99.90;;;;;;4946440;29;20513;-76
2023/12/19 07:23:19;;;;;;;28.95;26.10;;;18.30;99.90;;;;;;4944401;29;20090;-75
2023/12/19 07:25:44;;;;;;;29.15;26.33;;;16.50;99.90;;;;;;4943257;29;20417;-72
2023/12/19 07:28:10;;;;;;;29.15;26.02;;;16.60;99.90;;;;;;4948782;29;20043;-74
2023/12/19 07:30:36;;;;;;;28.55;25.48;;;18.00;99.90;;;;;;4947364;29;20489;-74
2023/12/19 07:33:02;;;;;;;28.27;25.23;;;17.20;99.90;;;;;;4948032;29;20042;-73
2023/12/19 07:35:27;;;;;;;27.08;24.30;;;17.60;99.90;;;;;;4941534;29;20087;-74
2023/12/19 07:37:53;;;;;;;26.88;23.80;;;18.20;99.90;;;;;;4949077;29;20844;-74
2023/12/19 07:40:19;;;;;;;29.20;25.33;;;17.90;99.90;;;;;;4933029;29;20054;-75
2023/12/19 07:42:44;;;;;;;29.77;26.63;;;18.20;99.90;;;;;;4949314;29;20078;-73
2023/12/19 07:45:11;;;;;;;30.23;26.30;;;18.50;99.90;;;;;;4949116;29;20491;-74
2023/12/19 07:47:36;;;;;;;33.17;26.67;;;17.70;99.90;;;;;;4949092;29;20039;-73
2023/12/19 07:50:03;;;;;;;31.92;27.83;;;18.40;99.90;;;;;;4946760;28;20424;-74
2023/12/19 07:52:28;;;;;;;30.17;26.95;;;17.20;99.90;;;;;;4946629;29;20051;-74
2023/12/19 07:54:55;;;;;;;30.98;27.30;;;16.90;99.90;;;;;;4944549;29;20047;-72
2023/12/19 07:57:20;;;;;;;39.47;27.70;;;17.70;99.90;;;;;;4948420;28;20111;-73
2023/12/19 07:59:46;;;;;;;44.55;29.92;;;18.00;99.90;;;;;;4942864;29;20047;-73
2023/12/19 08:02:12;;;;;;;32.67;26.92;;;16.80;99.90;;;;;;4947995;29;20062;-75
2023/12/19 08:04:38;;;;;;;33.78;27.73;;;17.40;99.90;;;;;;4958873;28;20061;-74
2023/12/19 08:07:04;;;;;;;31.10;26.55;;;17.50;99.90;;;;;;4930154;29;20046;-74
2023/12/19 08:09:30;;;;;;;33.97;27.42;;;16.80;99.90;;;;;;4925550;29;20031;-74
2023/12/19 08:11:59;;;;;;;37.88;26.83;;;17.90;99.90;;;;;;4932308;29;20047;-73
2023/12/19 08:14:24;;;;;;;37.83;28.88;;;17.20;99.90;;;;;;4960552;28;20039;-71
2023/12/19 08:16:50;;;;;;;40.22;28.75;;;17.20;99.90;;;;;;4932250;29;20065;-74
2023/12/19 08:19:18;;;;;;;37.05;28.25;;;17.50;99.90;;;;;;4944616;28;20059;-73
2023/12/19 08:22:02;;;;;;;41.30;27.73;;;17.80;99.90;;;;;;4947099;29;20047;-74
2023/12/19 08:24:28;;;;;;;39.92;27.95;;;18.60;99.90;;;;;;4944204;29;20051;-75
2023/12/19 08:26:53;;;;;;;45.17;28.27;;;17.10;99.90;;;;;;4947641;29;20047;-73
2023/12/19 08:29:19;;;;;;;44.58;27.58;;;17.70;99.90;;;;;;4942032;29;20080;-74
2023/12/19 08:31:48;;;;;;;42.17;29.58;;;17.60;99.90;;;;;;4942794;29;20043;-75
2023/12/19 08:34:18;;;;;;;47.85;28.67;;;17.70;99.90;;;;;;4945474;29;20039;-72
2023/12/19 08:36:44;;;;;;;36.42;27.98;;;16.80;99.90;;;;;;4944462;29;20040;-72
2023/12/19 08:39:10;;;;;;;47.95;27.35;;;16.70;99.90;;;;;;4945666;29;20441;-74
2023/12/19 08:41:37;;;;;;;43.05;26.50;;;18.30;99.90;;;;;;4946855;29;20047;-73
2023/12/19 08:44:03;;;;;;;43.22;27.73;;;19.50;99.90;;;;;;4944833;29;20567;-73
2023/12/19 08:46:29;;;;;;;43.08;28.45;;;17.00;99.90;;;;;;4947104;29;20078;-78
2023/12/19 08:48:54;;;;;;;48.80;31.10;;;17.40;99.90;;;;;;4943066;29;20529;-73
2023/12/19 08:51:21;;;;;;;55.47;31.67;;;18.30;99.90;;;;;;4931981;29;20070;-73
2023/12/19 08:53:46;;;;;;;58.05;32.97;;;16.70;99.90;;;;;;4942962;29;20139;-73
2023/12/19 08:56:12;;;;;;;52.78;31.73;;;18.30;99.90;;;;;;4950728;28;20256;-73
2023/12/19 08:58:37;;;;;;;54.35;32.10;;;17.70;99.90;;;;;;4943691;29;20051;-73
2023/12/19 09:01:03;;;;;;;57.95;32.05;;;18.50;99.90;;;;;;4947193;29;20081;-73
2023/12/19 09:03:29;;;;;;;48.90;29.58;;;16.70;99.90;;;;;;4946085;29;20043;-72
2023/12/19 09:05:54;;;;;;;46.22;30.75;;;17.90;99.90;;;;;;4946727;28;20051;-73
2023/12/19 09:08:21;;;;;;;50.83;31.77;;;16.80;99.90;;;;;;4947227;28;20055;-73
2023/12/19 09:10:46;;;;;;;46.50;30.60;;;18.80;99.90;;;;;;4962836;28;20527;-73
2023/12/19 09:13:12;;;;;;;41.40;27.67;;;16.80;99.90;;;;;;4939732;29;20047;-73
2023/12/19 09:15:38;;;;;;;38.95;28.67;;;18.60;99.90;;;;;;4945468;29;20074;-74
2023/12/19 09:18:04;;;;;;;38.38;28.10;;;17.20;99.90;;;;;;4946713;28;20054;-72
2023/12/19 09:20:30;;;;;;;46.63;28.98;;;18.70;99.90;;;;;;4947153;29;20116;-73
2023/12/19 09:22:56;;;;;;;38.15;27.30;;;18.30;99.90;;;;;;4947416;29;20572;-73
2023/12/19 09:25:21;;;;;;;46.97;29.90;;;18.50;99.90;;;;;;4941514;29;20050;-73
2023/12/19 09:27:47;;;;;;;47.88;28.83;;;16.80;99.90;;;;;;4929731;29;20557;-74
2023/12/19 09:30:14;;;;;;;40.22;28.88;;;17.40;99.90;;;;;;4945948;29;20035;-72
2023/12/19 09:32:41;;;;;;;43.70;27.38;;;17.10;99.90;;;;;;4930982;29;20043;-74
2023/12/19 09:35:07;;;;;;;41.28;27.95;;;18.30;99.90;;;;;;4944180;29;20489;-73
2023/12/19 09:37:34;;;;;;;42.30;28.17;;;18.70;99.90;;;;;;4946742;29;20051;-74
2023/12/19 09:40:00;;;;;;;34.13;27.48;;;18.20;99.90;;;;;;4946437;29;20369;-71
2023/12/19 09:42:27;;;;;;;29.17;25.38;;;18.60;99.90;;;;;;4946136;29;20074;-74
2023/12/19 09:44:53;;;;;;;34.17;23.88;;;18.00;99.90;;;;;;4943417;29;20892;-73
2023/12/19 09:47:23;;;;;;;35.92;25.35;;;18.50;99.90;;;;;;4947271;29;20154;-75
2023/12/19 09:50:00;;;;;;;30.50;24.00;;;17.50;99.90;;;;;;4946637;29;20049;-74
2023/12/19 09:52:26;;;;;;;31.55;25.10;;;17.00;99.90;;;;;;4947029;29;20051;-73
2023/12/19 09:54:53;;;;;;;31.35;25.05;;;17.70;99.90;;;;;;4941133;29;20118;-73
2023/12/19 09:57:20;;;;;;;35.60;25.33;;;18.60;99.90;;;;;;4943569;29;20038;-73
2023/12/19 09:59:47;;;;;;;29.63;24.35;;;19.00;99.90;;;;;;4945661;29;20610;-73
2023/12/19 10:02:17;;;;;;;27.98;24.13;;;18.50;99.90;;;;;;4946409;29;20055;-73
2023/12/19 10:04:43;;;;;;;34.20;25.33;;;19.10;99.90;;;;;;4943925;29;20129;-72
2023/12/19 10:07:09;;;;;;;32.85;25.23;;;17.70;99.90;;;;;;4938066;29;20053;-72
2023/12/19 10:09:34;;;;;;;27.75;24.75;;;17.20;99.90;;;;;;4946016;29;20047;-72
2023/12/19 10:12:04;;;;;;;30.33;26.50;;;19.10;99.90;;;;;;4940844;29;20052;-72
2023/12/19 10:14:30;;;;;;;31.85;26.20;;;18.80;99.90;;;;;;4936044;29;20043;-72
2023/12/19 10:16:56;;;;;;;29.85;26.35;;;18.70;99.90;;;;;;4945343;29;20043;-72
2023/12/19 10:19:26;;;;;;;29.98;25.02;;;18.00;99.90;;;;;;4945182;28;20047;-73
2023/12/19 10:22:07;;;;;;;26.23;23.45;;;18.80;99.90;;;;;;4943898;29;20137;-72
2023/12/19 10:24:34;;;;;;;31.13;25.15;;;17.30;99.90;;;;;;4923677;29;20805;-72
2023/12/19 10:27:01;;;;;;;33.80;25.98;;;18.30;99.90;;;;;;4945858;29;20043;-72
2023/12/19 10:29:28;;;;;;;32.10;26.00;;;19.00;99.90;;;;;;4945933;29;20051;-72
2023/12/19 10:31:54;;;;;;;30.52;25.23;;;17.40;99.90;;;;;;4946843;29;20109;-72
2023/12/19 10:34:22;;;;;;;26.88;23.90;;;17.80;99.90;;;;;;4946060;29;20559;-72
2023/12/19 10:36:48;;;;;;;25.52;22.98;;;18.50;99.90;;;;;;4946357;29;20043;-73
2023/12/19 10:39:19;;;;;;;27.02;22.70;;;17.20;99.90;;;;;;4920378;29;20417;-71
2023/12/19 10:41:44;;;;;;;24.15;21.85;;;19.00;99.90;;;;;;4929813;29;20085;-72
2023/12/19 10:44:12;;;;;;;25.77;23.27;;;16.90;99.90;;;;;;4940394;29;20078;-72
2023/12/19 10:46:38;;;;;;;25.45;22.95;;;18.80;99.90;;;;;;4941524;29;20483;-72
2023/12/19 10:49:04;;;;;;;25.20;22.80;;;18.70;99.90;;;;;;4941058;29;20386;-72
2023/12/19 10:51:33;;;;;;;24.73;22.55;;;18.50;99.90;;;;;;4941775;29;20433;-71
2023/12/19 10:54:11;;;;;;;24.20;22.20;;;17.10;99.90;;;;;;4928207;29;20043;-73
2023/12/19 10:57:16;;;;;;;23.98;21.90;;;16.90;99.90;;;;;;4945149;29;20600;-72
2023/12/19 11:00:10;;;;;;;24.38;22.38;;;18.10;99.90;;;;;;4889700;29;20134;-73
2023/12/19 11:02:59;;;;;;;24.20;22.15;;;19.00;99.90;;;;;;4888742;29;20048;-73
2023/12/19 11:05:40;;;;;;;24.90;22.50;;;17.90;99.90;;;;;;4919107;29;20658;-73
2023/12/19 11:08:13;;;;;;;23.80;21.60;;;17.30;99.90;;;;;;4951537;28;20536;-74
2023/12/19 11:10:39;;;;;;;25.48;22.55;;;18.70;99.90;;;;;;4945370;29;20047;-73
2023/12/19 11:13:06;;;;;;;25.05;22.40;;;18.60;99.90;;;;;;4944946;29;20051;-72
2023/12/19 11:15:40;;;;;;;24.27;22.13;;;18.40;99.90;;;;;;4945180;29;20070;-72
2023/12/19 11:18:18;;;;;;;25.40;22.98;;;17.40;99.90;;;;;;4941548;28;20058;-73
2023/12/19 11:20:56;;;;;;;23.38;21.27;;;17.00;99.90;;;;;;4944663;29;20128;-73
2023/12/19 11:23:59;;;;;;;24.42;22.33;;;17.00;99.90;;;;;;4961115;28;20054;-73
2023/12/19 11:26:33;;;;;;;24.13;21.75;;;18.30;99.90;;;;;;4943762;29;20063;-73
2023/12/19 11:28:59;;;;;;;24.65;22.40;;;18.80;99.90;;;;;;4939736;29;20051;-72
2023/12/19 11:31:36;;;;;;;24.95;22.42;;;18.70;99.90;;;;;;4944214;28;20478;-67
2023/12/19 11:34:37;;;;;;;23.92;21.75;;;18.60;99.90;;;;;;4948028;29;20043;-68
2023/12/19 11:37:04;;;;;;;28.75;23.08;;;17.40;99.90;;;;;;4949296;29;20474;-73
2023/12/19 11:39:36;;;;;;;26.00;23.30;;;17.70;99.90;;;;;;4948423;29;20449;-72
2023/12/19 11:42:02;;;;;;;26.33;23.73;;;18.40;99.90;;;;;;4945712;29;20051;-72
2023/12/19 11:44:37;;;;;;;25.63;23.17;;;17.00;99.90;;;;;;4948229;29;20050;-74
2023/12/19 11:47:17;;;;;;;31.08;23.20;;;17.00;99.90;;;;;;4946732;29;20055;-72
2023/12/19 11:49:43;;;;;;;25.00;22.65;;;16.90;99.90;;;;;;4947650;29;20051;-74
2023/12/19 11:52:29;;;;;;;25.58;22.95;;;17.50;99.90;;;;;;4948829;28;20047;-73
2023/12/19 11:54:54;;;;;;;25.48;22.98;;;18.40;99.90;;;;;;4946974;29;20043;-72
2023/12/19 11:57:21;;;;;;;24.77;22.48;;;16.90;99.90;;;;;;4949235;29;20421;-72
2023/12/19 11:59:49;;;;;;;24.23;21.88;;;17.60;99.90;;;;;;4948797;29;20163;-73
2023/12/19 12:02:36;;;;;;;24.33;22.08;;;18.50;99.90;;;;;;4947020;29;20505;-67
2023/12/19 12:05:12;;;;;;;23.70;21.50;;;17.10;99.90;;;;;;4943888;29;20493;-68
2023/12/19 12:07:42;;;;;;;24.75;22.35;;;17.40;99.90;;;;;;4947467;29;20117;-68
2023/12/19 12:10:09;;;;;;;23.58;21.38;;;18.50;99.90;;;;;;4948742;29;20058;-69
2023/12/19 12:12:35;;;;;;;25.83;23.27;;;17.10;99.90;;;;;;4948506;29;20359;-67
2023/12/19 12:15:08;;;;;;;26.92;24.10;;;18.10;99.90;;;;;;4946629;29;20045;-67
2023/12/19 12:17:35;;;;;;;27.63;24.73;;;17.00;99.90;;;;;;4948293;28;20055;-68
2023/12/19 12:20:01;;;;;;;27.08;24.55;;;16.40;99.90;;;;;;4946722;29;20094;-68
2023/12/19 12:22:26;;;;;;;28.52;23.63;;;16.50;99.90;;;;;;4948613;29;20130;-68
2023/12/19 12:24:55;;;;;;;26.75;24.23;;;17.80;99.90;;;;;;4947889;29;20090;-68
2023/12/19 12:27:21;;;;;;;25.40;23.00;;;18.10;99.90;;;;;;4949083;29;20134;-68
2023/12/19 12:29:47;;;;;;;25.55;22.23;;;16.90;99.90;;;;;;4945495;29;20133;-68